JAL2655 RJOM-RJTT
Flight info
| Callsign | JAL2655 |
|---|---|
| Flight time | N/A |
| Altitude | 41000 |
| Route | SAKAR KRE V37 PADOC Y43 MENUR Y21 AKSEL |
| Aircraft | A359/H-SDE2E3GHIJ3J4J5LM1ORWXY/LB1D1 |
Departure
| Time | 2026-04-23 10:25 |
|---|---|
| Airport | Matsuyama Airport (RJOM) |
Arrival
| Time | N/A |
|---|---|
| Airport | Tokyo Haneda International Airport (RJTT) |
| Time | Latitude | Longitude | Altitude | Speed | Heading |
|---|---|---|---|---|---|
| 2026-04-23 10:01 | 33.82796 | 132.70392 | 25 ft | 0 kts | 47° |
| 2026-04-23 10:17 | 33.82795 | 132.70391 | 30 ft | 2 kts | 47° |
| 2026-04-23 10:18 | 33.82778 | 132.70367 | 27 ft | 4 kts | 48° |
| 2026-04-23 10:18 | 33.82762 | 132.70345 | 30 ft | 3 kts | 49° |
| 2026-04-23 10:18 | 33.82749 | 132.70320 | 30 ft | 4 kts | 92° |
| 2026-04-23 10:18 | 33.82759 | 132.70294 | 30 ft | 4 kts | 135° |
| 2026-04-23 10:19 | 33.82771 | 132.70279 | 30 ft | 1 kts | 133° |
| 2026-04-23 10:19 | 33.82773 | 132.70276 | 30 ft | 0 kts | 133° |
| 2026-04-23 10:21 | 33.82746 | 132.70316 | 30 ft | 14 kts | 127° |
| 2026-04-23 10:21 | 33.82662 | 132.70367 | 28 ft | 13 kts | 158° |
| 2026-04-23 10:22 | 33.82590 | 132.70456 | 27 ft | 17 kts | 131° |
| 2026-04-23 10:22 | 33.82506 | 132.70572 | 29 ft | 20 kts | 131° |
| 2026-04-23 10:22 | 33.82442 | 132.70662 | 26 ft | 22 kts | 130° |
| 2026-04-23 10:22 | 33.82305 | 132.70855 | 25 ft | 22 kts | 130° |
| 2026-04-23 10:23 | 33.82232 | 132.70956 | 27 ft | 0 kts | 131° |
| 2026-04-23 10:23 | 33.82195 | 132.71002 | 24 ft | 12 kts | 141° |
| 2026-04-23 10:24 | 33.82105 | 132.71012 | 23 ft | 10 kts | 189° |
| 2026-04-23 10:24 | 33.82071 | 132.71003 | 24 ft | 10 kts | 199° |
| 2026-04-23 10:24 | 33.82042 | 132.70919 | 22 ft | 13 kts | 294° |
| 2026-04-23 10:24 | 33.82070 | 132.70873 | 23 ft | 0 kts | 310° |
| 2026-04-23 10:25 | 33.82078 | 132.70862 | 25 ft | 15 kts | 310° |
| 2026-04-23 10:25 | 33.82347 | 132.70488 | 28 ft | 101 kts | 311° |
| 2026-04-23 10:25 | 33.82967 | 132.69624 | 125 ft | 162 kts | 313° |
| 2026-04-23 10:25 | 33.83709 | 132.68545 | 922 ft | 170 kts | 313° |
| 2026-04-23 10:26 | 33.84114 | 132.67173 | 1841 ft | 189 kts | 273° |
| 2026-04-23 10:26 | 33.83604 | 132.65695 | 2405 ft | 198 kts | 223° |
| 2026-04-23 10:26 | 33.82355 | 132.65085 | 2857 ft | 200 kts | 176° |
| 2026-04-23 10:26 | 33.81018 | 132.65529 | 3249 ft | 207 kts | 155° |
| 2026-04-23 10:27 | 33.79613 | 132.66212 | 3624 ft | 224 kts | 157° |
| 2026-04-23 10:27 | 33.78066 | 132.66784 | 3999 ft | 241 kts | 163° |
| 2026-04-23 10:27 | 33.76404 | 132.67265 | 4426 ft | 255 kts | 165° |
| 2026-04-23 10:27 | 33.74623 | 132.67738 | 4887 ft | 269 kts | 166° |
| 2026-04-23 10:28 | 33.72737 | 132.68202 | 5265 ft | 284 kts | 167° |
| 2026-04-23 10:28 | 33.70782 | 132.68623 | 5953 ft | 286 kts | 170° |
| 2026-04-23 10:28 | 33.68765 | 132.69005 | 6494 ft | 293 kts | 172° |
| 2026-04-23 10:28 | 33.66830 | 132.69669 | 7116 ft | 295 kts | 154° |
| 2026-04-23 10:29 | 33.65198 | 132.71125 | 7946 ft | 290 kts | 142° |
| 2026-04-23 10:29 | 33.63687 | 132.72702 | 8754 ft | 286 kts | 142° |
| 2026-04-23 10:29 | 33.62199 | 132.74271 | 9490 ft | 286 kts | 143° |
| 2026-04-23 10:29 | 33.60672 | 132.75840 | 10003 ft | 292 kts | 144° |
| 2026-04-23 10:30 | 33.59099 | 132.77420 | 10481 ft | 298 kts | 146° |
| 2026-04-23 10:30 | 33.57709 | 132.79337 | 10786 ft | 319 kts | 121° |
| 2026-04-23 10:30 | 33.57044 | 132.81955 | 11044 ft | 337 kts | 101° |
| 2026-04-23 10:30 | 33.56799 | 132.84804 | 11299 ft | 352 kts | 94° |
| 2026-04-23 10:31 | 33.56741 | 132.87802 | 11518 ft | 365 kts | 91° |
| 2026-04-23 10:31 | 33.56743 | 132.90901 | 11792 ft | 378 kts | 90° |
| 2026-04-23 10:31 | 33.56741 | 132.94093 | 12043 ft | 389 kts | 91° |
| 2026-04-23 10:31 | 33.56707 | 132.97374 | 12273 ft | 396 kts | 91° |
| 2026-04-23 10:32 | 33.56638 | 133.00710 | 12539 ft | 402 kts | 92° |
| 2026-04-23 10:32 | 33.56534 | 133.04068 | 12910 ft | 406 kts | 93° |
| 2026-04-23 10:32 | 33.56417 | 133.07469 | 13305 ft | 410 kts | 94° |
| 2026-04-23 10:32 | 33.56296 | 133.10902 | 13702 ft | 414 kts | 94° |
| 2026-04-23 10:33 | 33.56175 | 133.14361 | 14077 ft | 416 kts | 94° |
| 2026-04-23 10:33 | 33.56093 | 133.16663 | 14325 ft | 418 kts | 94° |